• Join FlightAware (Why Join?)
  • Login
  • US Flag 
06:33PM EST


 

Airport Tracker/Info


-or-


 

Live Flight TrackerFlight Track Log ✈ SKW4821 ✈ 20-May-2012 ✈ KORD - KCVG

Flight Track Log - Related Links

Times and Time Zones

All times are in EDT time to prevent confusion due to time zone crossing. See the SKW4821 flight status page for this flight to view local times or setup timezone preferences in your user account.

Time Position Orientation Groundspeed Altitude Reporting Facility
EDT Latitude Longitude Course Direction KTS MPH feet Rate Location/Type
02:24PM 41.9000 -87.8667 154° Southeast 201 231 3,500  Level Chicago TRACON
02:29PM 41.6172 -87.6861 156° South 270 311 14,000 2,124 Climbing Chicago Center
02:30PM 41.5353 -87.6383 156° South 298 343 14,900 1,150 Climbing Chicago Center
02:31PM 41.4467 -87.5853 156° South 330 380 16,300 1,450 Climbing Chicago Center
02:32PM 41.3542 -87.5297 151° Southeast 346 398 17,800 1,600 Climbing Chicago Center
02:34PM 41.1769 -87.3994 157° South 370 426 21,100 1,567 Climbing Chicago Center
02:35PM 41.0822 -87.3472 155° Southeast 370 426 22,500 1,300 Climbing Chicago Center
02:36PM 40.9872 -87.2897 154° Southeast 370 426 23,700 750 Climbing Chicago Center
02:37PM 40.8903 -87.2267 148° Southeast 370 426 24,000 150 Climbing Chicago Center
02:38PM 40.7950 -87.1475 156° South 392 451 24,000  Level Chicago Center
02:39PM 40.7083 -87.0956 160° South 406 467 24,000 -450 Level Chicago Center
02:40PM 40.5928 -87.0394 146° Southeast 406 467 23,100 -500 Descending Chicago Center
02:41PM 40.4908 -86.9503 147° Southeast 399 459 23,000 -29 Descending Chicago Center
02:43PM 40.2703 -86.7592 146° Southeast 387 445 23,000  Level Indianapolis Center
02:44PM 40.1786 -86.6789 147° Southeast 387 445 23,000  Level Indianapolis Center
02:45PM 40.0889 -86.6017 148° Southeast 392 451 23,000  Level Indianapolis Center
02:46PM 39.9950 -86.5244 147° Southeast 387 445 23,000  Level Indianapolis Center
02:47PM 39.9053 -86.4475 145° Southeast 387 445 23,000  Level Indianapolis Center
02:48PM 39.8236 -86.3739 116° Southeast 387 445 23,000 -61 Level Indianapolis Center
02:49PM 39.7833 -86.2667 110° East 399 459 22,900 -1,576 Descending Indianapolis TRACON
02:50PM 39.7500 -86.1500 116° Southeast 387 445 20,400 -2,600 Descending Indianapolis TRACON
02:51PM 39.7000 -86.0167 110° East 367 422 17,700 -2,550 Descending Indianapolis TRACON
02:52PM 39.6667 -85.9000 113° Southeast 351 404 15,300 -1,900 Descending Indianapolis TRACON
02:53PM 39.6333 -85.8000 119° Southeast 335 386 13,900 -1,200 Descending Indianapolis TRACON
02:54PM 39.5833 -85.6833 110° East 328 377 12,900 -1,048 Descending Indianapolis TRACON
02:55PM 39.5500 -85.5667 120° Southeast 329 379 11,700 -809 Descending Indianapolis TRACON
02:56PM 39.4939 -85.4431 110° East 322 371 11,000 -578 Descending Indianapolis Center
02:57PM 39.4661 -85.3456 102° East 301 346 10,400 -800 Descending Indianapolis Center
02:58PM 39.4508 -85.2564 102° East 285 328 9,400 -994 Descending Indianapolis Center
03:00PM 39.4167 -85.0500 113° Southeast 284 327 7,500 -994 Descending Cincinnati TRACON
03:01PM 39.3833 -84.9500 123° Southeast 276 318 6,400 -1,000 Descending Cincinnati TRACON
03:02PM 39.3500 -84.8833 117° Southeast 260 299 5,400 -694 Descending Cincinnati TRACON
03:03PM 39.3167 -84.8000 123° Southeast 258 297 5,000 -298 Descending Cincinnati TRACON
03:04PM 39.2833 -84.7333 131° Southeast 198 228 4,800 -500 Descending Cincinnati TRACON
03:05PM 39.2500 -84.6833 153° Southeast 185 213 4,000 -450 Descending Cincinnati TRACON
03:06PM 39.2000 -84.6500 180° South 197 227 3,900 -550 Descending Cincinnati TRACON
03:07PM 39.1500 -84.6500 180° South 200 230 2,900 -1,050 Descending Cincinnati TRACON
03:08PM 39.1000 -84.6500 192° South 163 188 1,800 -1,100 Descending Cincinnati TRACON
03:16PM 38.6991 -84.7586 192° South  Level FlightAware Approximate